Time;durP1;ratioP1;P1;durP2;ratioP2;P2;SDS_P1;SDS_P2;PMS_P1;PMS_P2;Temp;Humidity;BMP_temperature;BMP_pressure;BME280_temperature;BME280_humidity;BME280_pressure;Samples;Min_cycle;Max_cycle;Signal;HPM_P1;HPM_P2
2021/01/02 00:02:28;;;;;;;23.47;12.70;;;;;;;0.93;95.85;96175.84;5100878;28;20259;-68
2021/01/02 00:05:07;;;;;;;17.70;11.93;;;;;;;0.86;95.84;96178.34;5055548;28;20249;-68
2021/01/02 00:07:38;;;;;;;17.13;12.13;;;;;;;0.87;95.71;96177.38;5103388;28;20172;-68
2021/01/02 00:10:04;;;;;;;17.07;12.30;;;;;;;0.92;95.61;96179.41;5104096;28;20203;-68
2021/01/02 00:13:08;;;;;;;19.93;13.20;;;;;;;1.01;95.17;96180.88;5099927;28;20265;-67
2021/01/02 00:15:39;;;;;;;19.27;12.37;;;;;;;0.83;95.76;96183.88;5099565;28;20197;-68
2021/01/02 00:18:43;;;;;;;21.80;12.67;;;;;;;0.80;96.30;96179.88;5103592;28;20631;-68
2021/01/02 00:21:28;;;;;;;18.40;13.10;;;;;;;0.84;96.29;96178.53;5077755;28;20254;-68
2021/01/02 00:24:09;;;;;;;21.80;13.63;;;;;;;0.94;95.21;96173.09;5096939;28;20206;-68
2021/01/02 00:26:46;;;;;;;21.67;13.30;;;;;;;0.71;96.18;96170.66;5090927;28;20196;-69
2021/01/02 00:29:23;;;;;;;19.53;13.30;;;;;;;0.77;96.01;96175.09;5080804;28;20630;-70
2021/01/02 00:32:05;;;;;;;17.90;12.17;;;;;;;0.78;95.96;96176.66;5102222;28;20179;-69
2021/01/02 00:34:43;;;;;;;20.57;12.93;;;;;;;0.84;95.23;96177.72;5100661;28;20291;-69
2021/01/02 00:37:34;;;;;;;17.63;12.53;;;;;;;0.67;96.51;96177.13;5097778;28;20176;-69
2021/01/02 00:40:14;;;;;;;18.87;12.53;;;;;;;0.70;96.62;96174.19;5104980;28;20670;-69
2021/01/02 00:42:43;;;;;;;19.40;13.20;;;;;;;0.57;95.93;96178.38;5105983;28;20195;-69
2021/01/02 00:45:12;;;;;;;22.03;13.43;;;;;;;0.72;96.14;96177.41;5095478;28;20179;-70
2021/01/02 00:47:40;;;;;;;18.63;12.77;;;;;;;0.71;96.18;96167.28;5101797;28;20299;-69
2021/01/02 00:50:08;;;;;;;18.00;12.43;;;;;;;0.71;94.41;96175.00;5107554;28;20177;-71
2021/01/02 00:52:46;;;;;;;18.53;12.63;;;;;;;0.62;94.23;96176.06;5092176;28;20237;-71
2021/01/02 00:55:20;;;;;;;15.87;10.57;;;;;;;0.81;93.08;96171.16;5093506;28;20192;-69
2021/01/02 00:58:17;;;;;;;18.90;12.87;;;;;;;0.71;94.06;96169.84;5103808;28;20183;-69
2021/01/02 01:00:44;;;;;;;18.20;12.70;;;;;;;0.74;93.68;96175.44;5094214;28;20196;-69
2021/01/02 01:03:35;;;;;;;19.60;12.63;;;;;;;0.74;94.42;96178.00;5108578;28;20215;-69
2021/01/02 01:06:03;;;;;;;18.83;12.00;;;;;;;0.75;94.60;96179.63;5082320;28;20268;-69
2021/01/02 01:08:34;;;;;;;12.80;9.90;;;;;;;0.70;94.30;96181.13;5094216;28;20310;-73
2021/01/02 01:11:10;;;;;;;14.97;10.83;;;;;;;0.62;94.23;96184.59;5095538;28;20180;-69
2021/01/02 01:13:37;;;;;;;13.73;10.13;;;;;;;0.64;94.63;96195.53;5101426;28;20275;-69
2021/01/02 01:16:03;;;;;;;15.10;10.57;;;;;;;0.75;94.45;96189.94;5069046;28;20548;-68
2021/01/02 01:18:58;;;;;;;16.50;10.10;;;;;;;0.75;93.13;96195.09;5110490;28;20180;-67
2021/01/02 01:21:28;;;;;;;14.60;9.93;;;;;;;0.79;93.84;96195.53;5095108;28;20189;-68
2021/01/02 01:24:13;;;;;;;15.33;9.83;;;;;;;0.79;93.45;96203.25;5102573;28;20274;-69
2021/01/02 01:26:53;;;;;;;14.13;10.23;;;;;;;0.77;93.10;96198.31;5098774;28;20173;-68
2021/01/02 01:29:27;;;;;;;15.10;10.33;;;;;;;0.76;93.25;96201.06;5108402;28;20180;-67
2021/01/02 01:31:57;;;;;;;14.90;10.33;;;;;;;0.83;93.38;96202.75;5105362;28;20639;-70
2021/01/02 01:34:25;;;;;;;15.63;10.07;;;;;;;0.75;93.30;96200.25;5102194;28;20303;-70
2021/01/02 01:36:51;;;;;;;13.17;9.80;;;;;;;0.77;93.76;96208.63;5097085;28;20175;-68
2021/01/02 01:39:22;;;;;;;15.73;10.37;;;;;;;0.88;92.32;96203.97;5108538;28;20658;-68
2021/01/02 01:41:57;;;;;;;18.60;11.70;;;;;;;0.82;93.30;96203.72;5104234;28;20168;-68
2021/01/02 01:44:53;;;;;;;16.93;11.67;;;;;;;0.81;93.80;96214.22;5103423;28;20713;-68
2021/01/02 01:47:39;;;;;;;18.77;11.97;;;;;;;0.83;93.90;96215.63;5095537;28;20187;-68
2021/01/02 01:50:20;;;;;;;18.33;12.50;;;;;;;0.99;92.73;96213.84;5104606;28;20524;-69
2021/01/02 01:53:31;;;;;;;17.13;12.23;;;;;;;0.81;93.68;96214.22;5104602;28;20203;-68
2021/01/02 01:56:01;;;;;;;16.97;12.57;;;;;;;0.84;93.96;96203.50;5096059;28;20211;-68
2021/01/02 01:58:39;;;;;;;19.10;13.57;;;;;;;0.89;93.22;96206.38;5093985;28;20207;-70
2021/01/02 02:01:05;;;;;;;16.00;12.03;;;;;;;0.89;94.00;96208.16;5072396;28;20298;-69
2021/01/02 02:03:59;;;;;;;18.80;12.70;;;;;;;0.82;94.49;96201.13;5108369;28;20671;-67
2021/01/02 02:06:30;;;;;;;20.43;12.90;;;;;;;0.73;95.11;96201.41;5101176;28;20184;-68
2021/01/02 02:09:00;;;;;;;19.10;12.87;;;;;;;0.72;94.64;96200.63;5092370;28;20179;-68
2021/01/02 02:11:44;;;;;;;19.37;12.90;;;;;;;0.75;94.74;96200.25;5102840;28;20176;-68
2021/01/02 02:14:11;;;;;;;20.57;12.93;;;;;;;0.72;94.98;96197.25;5107564;28;20260;-69
2021/01/02 02:17:02;;;;;;;19.13;13.10;;;;;;;0.89;93.96;96195.25;5091855;28;20224;-68
2021/01/02 02:20:06;;;;;;;18.27;12.13;;;;;;;0.72;94.29;96207.56;5102307;28;20207;-68
2021/01/02 02:22:36;;;;;;;16.27;11.67;;;;;;;0.58;94.52;96204.00;5110649;28;20172;-67
2021/01/02 02:25:04;;;;;;;17.37;12.20;;;;;;;0.62;94.34;96205.22;5102759;28;20265;-69
2021/01/02 02:27:30;;;;;;;18.30;12.77;;;;;;;0.63;95.13;96199.09;5104948;28;20306;-67
2021/01/02 02:30:12;;;;;;;20.73;13.73;;;;;;;0.78;94.36;96201.69;5098187;28;20180;-68
2021/01/02 02:32:43;;;;;;;19.90;12.30;;;;;;;0.77;93.77;96205.22;5079748;28;20211;-69
2021/01/02 02:35:15;;;;;;;21.03;14.33;;;;;;;0.72;93.88;96200.63;5103932;28;20176;-69
2021/01/02 02:37:44;;;;;;;19.70;13.03;;;;;;;0.75;94.19;96196.88;5113629;28;20176;-68
2021/01/02 02:40:11;;;;;;;18.70;12.93;;;;;;;0.64;94.78;96205.84;5097172;28;20570;-68
2021/01/02 02:42:42;;;;;;;18.73;12.60;;;;;;;0.73;94.81;96198.81;5098212;28;20591;-68
2021/01/02 02:45:12;;;;;;;20.03;13.80;;;;;;;0.79;94.17;96201.47;5107602;28;20177;-69
2021/01/02 02:47:40;;;;;;;21.83;13.80;;;;;;;0.78;94.83;96204.25;5106039;28;20180;-68
2021/01/02 02:50:16;;;;;;;20.47;13.47;;;;;;;0.66;95.22;96206.50;5113804;28;20221;-68
2021/01/02 02:52:45;;;;;;;20.53;14.33;;;;;;;0.60;95.38;96208.97;5078852;28;20677;-68
2021/01/02 02:55:12;;;;;;;21.97;14.30;;;;;;;0.65;95.05;96206.66;5100471;28;20266;-68
2021/01/02 02:57:47;;;;;;;20.57;14.00;;;;;;;0.67;95.29;96210.66;5106304;28;20211;-68
2021/01/02 03:00:13;;;;;;;20.83;14.40;;;;;;;0.70;95.15;96205.16;5096246;28;20290;-68
2021/01/02 03:02:39;;;;;;;23.37;15.37;;;;;;;0.64;95.77;96207.63;5111423;28;20250;-68
2021/01/02 03:05:10;;;;;;;21.57;14.73;;;;;;;0.62;95.08;96210.38;5114338;28;20658;-69
2021/01/02 03:07:41;;;;;;;21.87;14.57;;;;;;;0.48;96.33;96213.78;5105903;28;20187;-70
2021/01/02 03:10:08;;;;;;;21.90;14.07;;;;;;;0.35;96.76;96209.22;5114403;28;20251;-68
2021/01/02 03:12:45;;;;;;;20.63;14.90;;;;;;;0.51;96.16;96213.41;5112835;28;20187;-68
2021/01/02 03:15:17;;;;;;;19.70;13.67;;;;;;;0.39;97.22;96214.84;5096120;28;20180;-68
2021/01/02 03:17:44;;;;;;;19.50;13.37;;;;;;;0.33;97.33;96211.22;5106376;28;20588;-69
2021/01/02 03:20:11;;;;;;;18.97;13.10;;;;;;;0.47;96.82;96217.34;5114452;28;20200;-68
2021/01/02 03:22:41;;;;;;;16.10;12.30;;;;;;;0.48;95.84;96216.34;5097635;28;20178;-68
2021/01/02 03:25:08;;;;;;;18.47;12.23;;;;;;;0.36;96.11;96205.69;5114410;28;20586;-67
2021/01/02 03:27:35;;;;;;;21.80;13.47;;;;;;;0.43;95.46;96207.56;5112917;28;20534;-67
2021/01/02 03:30:01;;;;;;;19.90;13.23;;;;;;;0.41;96.13;96200.78;5114176;28;20563;-69
2021/01/02 03:32:26;;;;;;;20.30;13.77;;;;;;;0.30;96.49;96203.81;5113281;28;20187;-68
2021/01/02 03:34:52;;;;;;;21.43;14.17;;;;;;;0.34;96.91;96205.06;5112829;28;20384;-69
2021/01/02 03:37:17;;;;;;;19.90;13.77;;;;;;;0.25;97.06;96200.16;5114228;28;20195;-68
2021/01/02 03:39:42;;;;;;;23.07;14.57;;;;;;;0.29;96.91;96196.25;5112858;28;20207;-68
2021/01/02 03:42:09;;;;;;;21.93;14.07;;;;;;;0.21;97.83;96197.16;5113559;28;20257;-68
2021/01/02 03:44:34;;;;;;;20.63;14.63;;;;;;;0.31;97.29;96189.97;5112799;28;20202;-67
2021/01/02 03:47:10;;;;;;;20.43;14.83;;;;;;;0.33;97.01;96192.38;5113604;28;20176;-68
2021/01/02 03:49:36;;;;;;;21.37;14.17;;;;;;;0.13;97.77;96189.50;5086699;28;20179;-67
2021/01/02 03:52:03;;;;;;;22.93;15.30;;;;;;;0.02;98.11;96184.78;5113321;28;20188;-68
2021/01/02 03:54:29;;;;;;;23.83;15.17;;;;;;;-0.01;99.25;96192.88;5113148;28;20248;-69
2021/01/02 03:56:55;;;;;;;21.23;14.53;;;;;;;0.06;98.75;96187.81;5112191;28;20270;-68
2021/01/02 03:59:20;;;;;;;23.27;15.40;;;;;;;-0.03;98.61;96177.56;5113569;28;20207;-68
2021/01/02 04:01:59;;;;;;;23.07;15.43;;;;;;;0.05;98.81;96183.63;5109510;28;20705;-68
2021/01/02 04:04:25;;;;;;;22.27;15.30;;;;;;;0.06;98.79;96187.81;5112797;28;20208;-68
2021/01/02 04:06:53;;;;;;;23.17;14.50;;;;;;;0.10;98.45;96183.91;5112214;28;20172;-68
2021/01/02 04:09:19;;;;;;;24.93;15.87;;;;;;;-0.01;99.18;96190.28;5113147;28;20194;-69
2021/01/02 04:11:45;;;;;;;24.13;16.03;;;;;;;0.00;98.73;96179.00;5112137;28;20168;-68
2021/01/02 04:14:11;;;;;;;21.30;13.97;;;;;;;0.06;98.80;96182.66;5112679;28;20260;-68
2021/01/02 04:16:38;;;;;;;23.73;16.57;;;;;;;0.04;99.11;96185.41;5112193;28;20172;-68
2021/01/02 04:19:04;;;;;;;21.50;14.40;;;;;;;-0.08;99.52;96190.19;5112833;28;20200;-68
2021/01/02 04:21:35;;;;;;;22.40;15.40;;;;;;;-0.14;100.00;96182.34;5112420;28;20293;-68
2021/01/02 04:24:01;;;;;;;24.37;15.70;;;;;;;0.01;99.67;96178.00;5108289;28;20203;-68
2021/01/02 04:26:27;;;;;;;21.87;15.40;;;;;;;0.04;99.66;96182.03;5112850;28;20172;-69
2021/01/02 04:28:53;;;;;;;22.17;15.10;;;;;;;-0.03;99.57;96187.06;5111639;28;20671;-69
2021/01/02 04:31:21;;;;;;;23.53;15.17;;;;;;;-0.03;99.70;96197.38;5112919;28;20179;-68
2021/01/02 04:33:48;;;;;;;24.40;15.23;;;;;;;0.02;99.53;96199.41;5111905;28;20541;-68
2021/01/02 04:36:15;;;;;;;22.30;15.33;;;;;;;0.06;99.51;96191.16;5112263;28;20172;-68
2021/01/02 04:38:42;;;;;;;28.77;14.13;;;;;;;-0.07;100.00;96203.84;5111759;28;20693;-68
2021/01/02 04:41:07;;;;;;;21.60;13.57;;;;;;;0.03;99.64;96206.19;5112468;28;20176;-68
2021/01/02 04:43:33;;;;;;;19.93;13.27;;;;;;;-0.06;100.00;96205.47;5110776;28;20260;-67
2021/01/02 04:46:01;;;;;;;21.97;13.83;;;;;;;0.08;99.45;96207.25;5112061;28;20168;-69
2021/01/02 04:48:27;;;;;;;22.97;14.23;;;;;;;-0.13;100.00;96207.13;5112272;28;20183;-68
2021/01/02 04:50:53;;;;;;;24.03;14.40;;;;;;;0.00;99.70;96207.34;5111495;28;20160;-69
2021/01/02 04:53:20;;;;;;;26.57;15.53;;;;;;;0.05;99.49;96204.25;5112110;28;20203;-68
2021/01/02 04:55:46;;;;;;;24.40;14.60;;;;;;;-0.03;100.00;96208.47;5111666;28;20179;-68
2021/01/02 04:58:18;;;;;;;25.57;15.33;;;;;;;0.01;99.84;96208.94;5111847;28;20176;-68
2021/01/02 05:00:46;;;;;;;26.13;16.60;;;;;;;0.04;100.00;96200.06;5108608;28;20234;-68
2021/01/02 05:03:11;;;;;;;28.83;17.13;;;;;;;0.11;99.77;96206.91;5111378;28;20262;-67
2021/01/02 05:05:37;;;;;;;24.53;15.97;;;;;;;0.21;99.31;96209.22;5093027;28;20183;-67
2021/01/02 05:08:03;;;;;;;25.83;16.70;;;;;;;0.22;99.27;96196.19;5112321;28;20164;-68
2021/01/02 05:10:29;;;;;;;25.27;17.07;;;;;;;0.20;99.18;96207.63;5112030;28;20225;-68
2021/01/02 05:13:15;;;;;;;23.63;15.57;;;;;;;0.24;99.22;96208.88;5111050;28;20208;-68
2021/01/02 05:15:41;;;;;;;37.90;17.30;;;;;;;0.16;98.81;96217.50;5093017;28;20625;-69
2021/01/02 05:18:07;;;;;;;46.00;17.20;;;;;;;0.19;99.58;96211.19;5111735;28;20641;-69
2021/01/02 05:20:34;;;;;;;40.80;17.60;;;;;;;0.16;99.58;96216.69;5111357;28;20199;-67
2021/01/02 05:23:09;;;;;;;38.30;17.30;;;;;;;0.12;99.48;96220.56;5111935;28;20682;-69
2021/01/02 05:25:36;;;;;;;45.83;20.20;;;;;;;-0.04;100.00;96222.31;5111416;28;20665;-67
2021/01/02 05:28:01;;;;;;;123.10;22.20;;;;;;;-0.05;100.00;96222.50;5111243;28;20191;-68
2021/01/02 05:30:32;;;;;;;40.10;19.13;;;;;;;-0.19;100.00;96218.13;5111728;28;20172;-69
2021/01/02 05:33:02;;;;;;;56.20;19.87;;;;;;;-0.11;100.00;96218.84;5111392;28;20207;-68
2021/01/02 05:35:46;;;;;;;46.03;18.07;;;;;;;-0.15;100.00;96209.06;5111545;28;20176;-68
2021/01/02 05:38:14;;;;;;;129.13;21.43;;;;;;;-0.12;100.00;96211.31;5111305;28;20186;-68
2021/01/02 05:40:42;;;;;;;102.80;20.27;;;;;;;-0.02;100.00;96212.66;5110707;28;20295;-68
2021/01/02 05:43:08;;;;;;;85.50;20.50;;;;;;;-0.13;100.00;96220.81;5111433;28;20203;-68
2021/01/02 05:45:36;;;;;;;194.57;26.83;;;;;;;-0.01;100.00;96221.19;5111140;28;20539;-67
2021/01/02 05:48:17;;;;;;;143.30;22.43;;;;;;;-0.02;100.00;96227.31;5111777;28;20180;-68
2021/01/02 05:50:45;;;;;;;124.63;20.63;;;;;;;-0.12;100.00;96229.34;5103556;28;20176;-69
2021/01/02 05:53:35;;;;;;;142.33;22.77;;;;;;;-0.29;100.00;96228.66;5111281;28;20196;-68
2021/01/02 05:56:12;;;;;;;169.47;22.67;;;;;;;-0.24;100.00;96226.38;5104497;28;20164;-69
2021/01/02 05:58:41;;;;;;;95.67;19.30;;;;;;;-0.23;100.00;96227.19;5107265;28;20207;-68
2021/01/02 06:01:13;;;;;;;94.87;21.30;;;;;;;-0.37;100.00;96215.84;5112909;28;20255;-67
2021/01/02 06:03:40;;;;;;;193.57;23.60;;;;;;;-0.40;100.00;96223.13;5098699;28;20711;-68
2021/01/02 06:06:07;;;;;;;121.93;21.47;;;;;;;-0.43;100.00;96213.97;5115701;28;20164;-68
2021/01/02 06:08:40;;;;;;;74.53;20.27;;;;;;;-0.44;100.00;96209.78;5114796;28;20180;-67
2021/01/02 06:11:27;;;;;;;42.53;16.53;;;;;;;-0.31;100.00;96217.72;5115407;28;20172;-69
2021/01/02 06:13:53;;;;;;;171.53;20.00;;;;;;;-0.30;100.00;96218.53;5113704;28;20298;-68
2021/01/02 06:16:19;;;;;;;66.50;17.90;;;;;;;-0.25;100.00;96214.47;5115227;28;20172;-69
2021/01/02 06:18:46;;;;;;;34.63;16.73;;;;;;;-0.18;100.00;96214.59;5114324;28;20170;-68
2021/01/02 06:21:14;;;;;;;136.73;19.97;;;;;;;-0.14;100.00;96213.25;5115105;28;20178;-70
2021/01/02 06:23:42;;;;;;;126.93;18.13;;;;;;;-0.21;100.00;96212.34;5114198;28;20297;-68
2021/01/02 06:26:10;;;;;;;40.33;16.10;;;;;;;-0.06;100.00;96218.34;5114779;28;20251;-67
2021/01/02 06:28:37;;;;;;;46.90;16.20;;;;;;;0.11;100.00;96224.94;5097922;28;20168;-68
2021/01/02 06:31:11;;;;;;;54.43;17.17;;;;;;;0.03;100.00;96225.00;5114864;28;20180;-68
2021/01/02 06:33:43;;;;;;;207.47;18.80;;;;;;;-0.06;100.00;96229.41;5113997;28;20207;-68
2021/01/02 06:36:30;;;;;;;107.93;15.90;;;;;;;-0.23;100.00;96225.41;5114837;28;20197;-68
2021/01/02 06:39:21;;;;;;;137.37;18.63;;;;;;;-0.36;100.00;96224.38;5114243;28;20223;-69
2021/01/02 06:41:47;;;;;;;119.70;15.77;;;;;;;-0.31;100.00;96222.06;5114001;28;20183;-68
2021/01/02 06:44:44;;;;;;;69.63;15.27;;;;;;;-0.20;100.00;96219.09;5114392;28;20195;-68
2021/01/02 06:47:23;;;;;;;258.30;22.47;;;;;;;-0.39;100.00;96220.34;5114576;28;20175;-68
2021/01/02 06:49:53;;;;;;;286.83;21.00;;;;;;;-0.49;100.00;96217.22;5112534;28;20168;-67
2021/01/02 06:52:36;;;;;;;157.63;19.03;;;;;;;-0.35;100.00;96213.91;5094987;28;20646;-67
2021/01/02 06:55:21;;;;;;;69.27;15.10;;;;;;;-0.29;100.00;96220.13;5112121;28;20714;-68
2021/01/02 06:57:48;;;;;;;59.90;15.03;;;;;;;-0.17;100.00;96223.91;5094374;28;20172;-67
2021/01/02 07:00:26;;;;;;;87.20;17.33;;;;;;;-0.15;100.00;96227.91;5112552;28;20211;-67
2021/01/02 07:02:53;;;;;;;74.30;16.20;;;;;;;-0.14;100.00;96233.84;5108575;28;20227;-67
2021/01/02 07:05:41;;;;;;;54.43;15.07;;;;;;;-0.13;100.00;96240.59;5114170;28;20603;-68
2021/01/02 07:08:40;;;;;;;48.93;14.07;;;;;;;-0.14;100.00;96247.53;5114565;28;20166;-69
2021/01/02 07:11:35;;;;;;;100.50;14.80;;;;;;;-0.35;100.00;96244.00;5114206;28;20179;-69
2021/01/02 07:14:09;;;;;;;143.60;17.97;;;;;;;-0.25;100.00;96250.50;5114229;28;20196;-69
2021/01/02 07:16:47;;;;;;;247.30;19.47;;;;;;;-0.32;100.00;96254.75;5112935;28;20159;-66
2021/01/02 07:19:24;;;;;;;43.90;13.67;;;;;;;-0.43;100.00;96248.22;5113701;28;20245;-68
2021/01/02 07:22:16;;;;;;;162.67;18.77;;;;;;;-0.29;100.00;96251.84;5094906;28;20397;-67
2021/01/02 07:24:47;;;;;;;147.20;18.13;;;;;;;-0.42;100.00;96242.09;5105927;28;20669;-64
2021/01/02 07:27:20;;;;;;;222.83;20.97;;;;;;;-0.46;100.00;96242.63;5113672;28;20172;-65
2021/01/02 07:29:48;;;;;;;82.43;17.00;;;;;;;-0.33;100.00;96245.41;5113158;28;20168;-64
2021/01/02 07:32:17;;;;;;;70.23;15.10;;;;;;;-0.26;100.00;96245.53;5113501;28;20190;-65
2021/01/02 07:34:45;;;;;;;37.40;14.27;;;;;;;-0.32;100.00;96246.22;5112868;28;20196;-65
2021/01/02 07:37:16;;;;;;;106.77;16.53;;;;;;;-0.29;100.00;96244.13;5113451;28;20630;-64
2021/01/02 07:40:11;;;;;;;251.63;22.80;;;;;;;-0.44;100.00;96246.63;5094339;28;20241;-68
2021/01/02 07:42:42;;;;;;;59.70;14.63;;;;;;;-0.38;100.00;96245.13;5112373;28;20187;-65
2021/01/02 07:45:11;;;;;;;72.03;16.57;;;;;;;-0.22;100.00;96239.84;5112811;28;20182;-66
2021/01/02 07:47:38;;;;;;;30.37;15.40;;;;;;;-0.22;100.00;96239.06;5112411;28;20171;-66
2021/01/02 07:50:11;;;;;;;32.00;14.67;;;;;;;-0.20;100.00;96239.69;5112847;28;20168;-67
2021/01/02 07:52:46;;;;;;;28.40;14.23;;;;;;;-0.03;100.00;96256.63;5103347;28;20351;-66
2021/01/02 07:55:13;;;;;;;25.60;13.87;;;;;;;0.06;100.00;96250.41;5112517;28;20258;-66
2021/01/02 07:57:38;;;;;;;26.33;13.30;;;;;;;0.14;100.00;96254.69;5111974;28;20171;-66
2021/01/02 08:00:07;;;;;;;23.90;13.37;;;;;;;0.19;100.00;96252.41;5112304;28;20681;-66
2021/01/02 08:02:39;;;;;;;22.70;13.10;;;;;;;0.25;99.77;96257.66;5118266;27;20249;-66
2021/01/02 08:05:08;;;;;;;22.17;13.03;;;;;;;0.46;99.71;96251.00;5120470;27;20176;-66
2021/01/02 08:07:34;;;;;;;22.00;13.30;;;;;;;0.52;98.23;96252.88;5116769;27;20175;-66
2021/01/02 08:10:00;;;;;;;23.03;13.47;;;;;;;0.45;97.48;96249.44;5118111;27;20171;-66
2021/01/02 08:12:26;;;;;;;21.10;12.67;;;;;;;0.24;97.58;96247.53;5121050;27;20171;-66
2021/01/02 08:14:52;;;;;;;20.37;12.23;;;;;;;0.11;97.77;96249.91;5117927;27;20880;-66
2021/01/02 08:17:19;;;;;;;19.57;12.67;;;;;;;0.03;98.08;96255.13;5124411;27;20224;-66
2021/01/02 08:19:47;;;;;;;20.73;12.60;;;;;;;0.23;98.20;96246.72;5131194;27;20701;-66
2021/01/02 08:22:37;;;;;;;21.53;12.43;;;;;;;0.39;97.34;96241.41;5123968;27;20179;-66
2021/01/02 08:25:14;;;;;;;18.97;11.93;;;;;;;0.27;96.87;96237.69;5116186;27;20175;-65
2021/01/02 08:27:40;;;;;;;20.73;12.53;;;;;;;0.42;97.01;96242.84;5124358;27;20637;-65
2021/01/02 08:30:09;;;;;;;22.07;12.57;;;;;;;0.45;96.81;96245.06;5116341;27;20168;-66
2021/01/02 08:32:44;;;;;;;20.23;12.23;;;;;;;0.50;96.43;96239.38;5122771;27;20537;-65
2021/01/02 08:35:43;;;;;;;19.53;12.50;;;;;;;0.56;96.12;96242.03;5124103;27;20178;-66
2021/01/02 08:38:12;;;;;;;20.07;12.07;;;;;;;0.53;96.58;96239.03;5096883;28;20283;-66
2021/01/02 08:40:41;;;;;;;18.67;12.20;;;;;;;0.53;96.03;96233.88;5076970;28;20192;-65
2021/01/02 08:43:06;;;;;;;19.63;12.50;;;;;;;0.62;95.56;96238.75;5119801;27;20281;-65
2021/01/02 08:45:33;;;;;;;21.83;12.43;;;;;;;0.66;95.88;96240.00;5123547;27;20255;-65
2021/01/02 08:48:12;;;;;;;21.27;12.47;;;;;;;0.81;94.97;96242.56;5116626;27;20259;-66
2021/01/02 08:50:40;;;;;;;20.33;12.53;;;;;;;0.70;94.67;96250.75;5107291;28;20216;-66
2021/01/02 08:53:05;;;;;;;18.13;11.83;;;;;;;0.65;94.69;96250.50;5090437;28;20199;-67
2021/01/02 08:55:31;;;;;;;19.80;12.60;;;;;;;0.28;95.49;96248.78;5117427;27;20175;-66
2021/01/02 08:57:56;;;;;;;21.27;12.13;;;;;;;0.37;96.15;96247.72;5112971;27;20641;-66
2021/01/02 09:00:28;;;;;;;22.30;13.57;;;;;;;0.34;95.73;96256.59;5120538;27;20545;-66
2021/01/02 09:02:54;;;;;;;22.50;13.27;;;;;;;0.15;96.92;96251.16;5135717;27;20973;-65
2021/01/02 09:05:37;;;;;;;22.47;13.50;;;;;;;0.01;97.82;96250.13;5146834;27;20175;-65
2021/01/02 09:08:05;;;;;;;23.33;14.50;;;;;;;-0.03;98.33;96254.84;5131291;27;20167;-66
2021/01/02 09:10:44;;;;;;;26.10;14.97;;;;;;;-0.07;99.06;96253.59;5142795;27;20175;-65
2021/01/02 09:13:16;;;;;;;23.73;14.03;;;;;;;0.05;98.52;96248.84;5133051;27;20286;-65
2021/01/02 09:16:05;;;;;;;26.33;15.33;;;;;;;0.07;98.63;96257.16;5140459;27;20167;-65
2021/01/02 09:18:31;;;;;;;23.73;14.27;;;;;;;0.00;98.80;96257.06;5120346;27;20221;-65
2021/01/02 09:21:05;;;;;;;25.63;14.73;;;;;;;0.10;98.87;96264.56;5142717;27;20226;-66
2021/01/02 09:23:39;;;;;;;24.97;14.67;;;;;;;0.18;97.96;96263.69;5134473;27;20259;-66
2021/01/02 09:26:16;;;;;;;25.57;14.30;;;;;;;0.32;97.45;96256.00;5137426;27;20644;-66
2021/01/02 09:28:43;;;;;;;23.37;14.07;;;;;;;0.43;97.08;96257.34;5135215;27;20899;-68
2021/01/02 09:31:08;;;;;;;19.23;12.87;;;;;;;0.26;96.76;96255.88;5140599;27;20174;-66
2021/01/02 09:33:34;;;;;;;21.27;13.13;;;;;;;0.36;96.89;96259.00;5142701;27;20209;-65
2021/01/02 09:35:59;;;;;;;23.00;13.80;;;;;;;0.49;96.93;96266.94;5148040;27;20662;-66
2021/01/02 09:38:24;;;;;;;25.00;14.57;;;;;;;0.38;96.09;96268.19;5150036;27;20625;-66
2021/01/02 09:40:50;;;;;;;21.47;13.67;;;;;;;0.20;96.87;96269.47;5143991;27;20903;-67
2021/01/02 09:43:16;;;;;;;20.30;13.20;;;;;;;0.07;97.45;96266.66;5138536;27;20182;-67
2021/01/02 09:45:42;;;;;;;24.90;14.80;;;;;;;0.03;97.27;96268.00;5152957;27;20162;-66
2021/01/02 09:48:10;;;;;;;23.90;14.50;;;;;;;-0.10;97.98;96291.75;5145050;27;20190;-66
2021/01/02 09:50:35;;;;;;;24.40;14.77;;;;;;;-0.18;97.99;96284.09;5153718;27;20671;-64
2021/01/02 09:53:02;;;;;;;22.33;14.77;;;;;;;-0.09;98.09;96286.44;5147999;27;20203;-65
2021/01/02 09:55:28;;;;;;;25.13;15.03;;;;;;;-0.12;98.30;96291.16;5136723;27;20186;-66
2021/01/02 09:57:54;;;;;;;25.67;15.40;;;;;;;-0.14;98.47;96298.22;5145466;27;20214;-67
2021/01/02 10:00:20;;;;;;;26.57;16.00;;;;;;;-0.24;99.70;96289.94;5130758;27;20310;-66
2021/01/02 10:02:46;;;;;;;27.47;15.87;;;;;;;-0.15;99.21;96291.47;5114539;27;20235;-64
2021/01/02 10:05:18;;;;;;;27.83;14.70;;;;;;;-0.10;98.92;96289.97;5113344;27;20188;-66
2021/01/02 10:07:44;;;;;;;23.63;14.13;;;;;;;-0.15;99.04;96291.47;5113441;28;20184;-66
2021/01/02 10:10:11;;;;;;;27.03;15.43;;;;;;;0.01;98.71;96283.63;5115369;28;20775;-66
2021/01/02 10:12:36;;;;;;;23.33;14.80;;;;;;;-0.06;99.25;96275.00;5116304;27;20645;-66
2021/01/02 10:15:03;;;;;;;25.33;14.73;;;;;;;0.13;98.89;96277.09;5128052;27;20172;-66
2021/01/02 10:17:29;;;;;;;24.57;15.00;;;;;;;0.15;97.99;96276.91;5121590;27;20191;-66
2021/01/02 10:19:55;;;;;;;24.57;15.27;;;;;;;-0.06;98.53;96275.78;5112177;27;20203;-66
2021/01/02 10:22:21;;;;;;;23.50;14.83;;;;;;;-0.04;97.86;96273.84;5120401;27;20309;-66
2021/01/02 10:24:48;;;;;;;25.30;15.00;;;;;;;0.10;97.50;96269.72;5096943;27;20274;-66
2021/01/02 10:27:14;;;;;;;22.43;13.67;;;;;;;0.24;96.90;96265.56;5126524;27;20241;-66
2021/01/02 10:29:46;;;;;;;21.87;13.73;;;;;;;0.38;95.87;96269.94;5123015;27;20206;-66
2021/01/02 10:32:13;;;;;;;23.43;14.03;;;;;;;0.39;95.71;96256.88;5114565;28;20191;-66
2021/01/02 10:34:43;;;;;;;24.53;13.87;;;;;;;0.61;95.90;96238.94;5114544;27;20317;-66
2021/01/02 10:37:08;;;;;;;19.90;13.00;;;;;;;0.57;94.02;96243.63;5115307;27;20681;-66
2021/01/02 10:39:39;;;;;;;21.67;13.00;;;;;;;0.78;93.31;96235.97;5110405;27;20200;-65
2021/01/02 10:42:04;;;;;;;20.77;13.13;;;;;;;1.09;92.41;96238.38;5094969;28;20183;-66
2021/01/02 10:44:30;;;;;;;20.67;12.73;;;;;;;1.34;91.49;96230.31;5114496;28;20566;-66
2021/01/02 10:46:56;;;;;;;19.53;13.07;;;;;;;1.28;91.03;96236.19;5115383;27;20910;-66
2021/01/02 10:49:23;;;;;;;17.70;11.17;;;;;;;1.31;89.58;96233.22;5129231;27;20180;-66
2021/01/02 10:51:49;;;;;;;15.53;11.40;;;;;;;1.13;90.02;96231.03;5132498;27;20188;-67
2021/01/02 10:54:16;;;;;;;18.77;12.17;;;;;;;1.29;90.38;96222.28;5133335;27;20673;-66
2021/01/02 10:56:49;;;;;;;18.03;12.33;;;;;;;1.28;89.65;96229.25;5131879;27;20574;-66
2021/01/02 10:59:16;;;;;;;19.40;12.80;;;;;;;1.06;90.00;96225.81;5115061;27;20662;-67
2021/01/02 11:01:48;;;;;;;20.43;13.23;;;;;;;0.91;90.48;96217.31;5128007;27;20229;-66
2021/01/02 11:04:15;;;;;;;22.73;14.53;;;;;;;0.88;92.14;96216.88;5150532;27;20210;-67
2021/01/02 11:06:43;;;;;;;23.77;14.87;;;;;;;0.86;93.12;96214.47;5134018;27;20172;-66
2021/01/02 11:09:14;;;;;;;20.70;13.17;;;;;;;0.91;92.43;96206.19;5133330;27;20185;-66
2021/01/02 11:11:41;;;;;;;21.00;13.33;;;;;;;1.06;92.32;96202.59;5147395;27;20205;-66
2021/01/02 11:14:07;;;;;;;18.77;12.70;;;;;;;0.80;92.15;96197.13;5122940;27;20206;-66
2021/01/02 11:16:38;;;;;;;21.50;14.23;;;;;;;0.89;92.34;96188.31;5133931;27;20191;-66
2021/01/02 11:19:12;;;;;;;18.80;12.70;;;;;;;0.88;91.98;96184.13;5134071;27;20190;-66
2021/01/02 11:21:39;;;;;;;17.20;12.57;;;;;;;0.86;91.42;96175.78;5133849;27;20167;-65
2021/01/02 11:24:05;;;;;;;17.83;12.30;;;;;;;0.96;91.47;96176.28;5129452;27;20215;-67
2021/01/02 11:26:31;;;;;;;19.30;12.90;;;;;;;0.86;91.84;96175.78;5130892;27;20230;-65
2021/01/02 11:28:56;;;;;;;19.90;13.73;;;;;;;0.87;91.72;96174.81;5134028;27;20192;-65
2021/01/02 11:31:33;;;;;;;18.47;12.87;;;;;;;0.84;91.52;96181.09;5134211;27;20620;-65
2021/01/02 11:33:59;;;;;;;18.93;13.37;;;;;;;0.78;92.42;96189.56;5133568;27;20195;-66
2021/01/02 11:36:25;;;;;;;19.67;13.23;;;;;;;0.33;94.14;96193.16;5149839;27;20193;-65
2021/01/02 11:38:51;;;;;;;19.93;14.07;;;;;;;0.81;92.89;96189.22;5150356;27;20203;-66
2021/01/02 11:41:18;;;;;;;18.90;13.13;;;;;;;0.77;93.24;96192.34;5134209;27;20159;-66